Time;durP1;ratioP1;P1;durP2;ratioP2;P2;SDS_P1;SDS_P2;PMS_P1;PMS_P2;Temp;Humidity;BMP_temperature;BMP_pressure;BME280_temperature;BME280_humidity;BME280_pressure;Samples;Min_cycle;Max_cycle;Signal;HPM_P1;HPM_P2
2023/09/28 00:01:13;;;;;;;6.22;4.68;;;17.40;99.90;;;;;;4859036;29;20198;-68
2023/09/28 00:03:45;;;;;;;6.45;5.28;;;17.40;99.90;;;;;;4858353;29;20221;-67
2023/09/28 00:06:13;;;;;;;6.10;4.40;;;17.30;99.90;;;;;;4854801;29;20682;-67
2023/09/28 00:08:40;;;;;;;5.72;4.88;;;17.30;99.90;;;;;;4839325;29;20236;-67
2023/09/28 00:11:07;;;;;;;7.45;4.47;;;17.20;99.90;;;;;;4860996;29;20194;-67
2023/09/28 00:13:34;;;;;;;7.70;4.35;;;17.20;99.90;;;;;;4855182;29;20619;-67
2023/09/28 00:16:01;;;;;;;4.85;4.28;;;17.20;99.90;;;;;;4852747;29;20235;-64
2023/09/28 00:18:29;;;;;;;4.93;4.13;;;17.10;99.90;;;;;;4848262;29;20247;-65
2023/09/28 00:20:59;;;;;;;4.53;3.78;;;17.20;99.90;;;;;;4854063;29;20222;-62
2023/09/28 00:23:26;;;;;;;5.50;4.13;;;17.20;99.90;;;;;;4857029;29;20313;-64
2023/09/28 00:25:53;;;;;;;4.75;3.90;;;17.10;99.90;;;;;;4855782;29;20306;-66
2023/09/28 00:28:20;;;;;;;4.70;4.00;;;17.20;99.90;;;;;;4853355;29;20640;-64
2023/09/28 00:30:48;;;;;;;5.18;4.28;;;17.10;99.90;;;;;;4838016;29;20202;-64
2023/09/28 00:33:15;;;;;;;4.43;3.65;;;17.10;99.90;;;;;;4839626;29;20222;-66
2023/09/28 00:35:43;;;;;;;4.53;3.55;;;17.20;99.90;;;;;;4838369;29;20202;-65
2023/09/28 00:38:10;;;;;;;5.93;4.32;;;17.10;99.90;;;;;;4861543;29;20205;-65
2023/09/28 00:40:41;;;;;;;6.85;4.05;;;17.20;99.90;;;;;;4854080;29;20222;-65
2023/09/28 00:43:10;;;;;;;8.50;4.10;;;17.10;99.90;;;;;;4840329;29;20266;-65
2023/09/28 00:45:37;;;;;;;8.23;4.35;;;17.10;99.90;;;;;;4855297;29;20554;-63
2023/09/28 00:48:09;;;;;;;4.35;3.65;;;17.10;99.90;;;;;;4840816;29;20201;-64
2023/09/28 00:50:36;;;;;;;6.53;4.07;;;17.10;99.90;;;;;;4852772;29;20198;-64
2023/09/28 00:53:10;;;;;;;5.55;4.07;;;17.10;99.90;;;;;;4851957;29;20228;-64
2023/09/28 00:55:38;;;;;;;5.38;3.65;;;17.10;99.90;;;;;;4838820;29;20198;-64
2023/09/28 00:58:06;;;;;;;6.80;4.22;;;17.00;99.90;;;;;;4841290;29;20224;-62
2023/09/28 01:00:33;;;;;;;4.88;4.32;;;16.90;99.90;;;;;;4844480;29;20577;-63
2023/09/28 01:03:05;;;;;;;6.22;4.10;;;16.80;99.90;;;;;;4840344;29;20731;-65
2023/09/28 01:05:34;;;;;;;4.93;4.30;;;16.80;99.90;;;;;;4849814;29;20548;-64
2023/09/28 01:08:07;;;;;;;5.82;4.10;;;16.80;99.90;;;;;;4849919;29;20202;-62
2023/09/28 01:10:38;;;;;;;4.65;4.15;;;16.90;99.90;;;;;;4856866;29;20321;-63
2023/09/28 01:13:12;;;;;;;8.23;3.70;;;16.90;99.90;;;;;;4838364;29;20540;-62
2023/09/28 01:15:41;;;;;;;4.65;3.78;;;16.90;99.90;;;;;;4863079;29;20701;-63
2023/09/28 01:18:15;;;;;;;7.70;4.07;;;16.90;99.90;;;;;;4875158;29;20245;-62
2023/09/28 01:20:44;;;;;;;4.88;3.60;;;16.90;99.90;;;;;;4871761;29;20217;-62
2023/09/28 01:23:11;;;;;;;5.45;4.10;;;16.80;99.90;;;;;;4854561;29;20202;-63
2023/09/28 01:25:39;;;;;;;5.20;4.20;;;16.70;99.90;;;;;;4867940;29;20285;-63
2023/09/28 01:28:07;;;;;;;5.70;3.90;;;16.80;99.90;;;;;;4853117;29;20197;-63
2023/09/28 01:30:34;;;;;;;4.60;4.00;;;16.80;99.90;;;;;;4864795;29;20199;-63
2023/09/28 01:33:02;;;;;;;4.57;3.60;;;16.80;99.90;;;;;;4875568;29;20217;-64
2023/09/28 01:35:30;;;;;;;5.68;4.20;;;16.80;99.90;;;;;;4854803;29;20623;-64
2023/09/28 01:38:12;;;;;;;7.22;3.88;;;16.80;99.90;;;;;;4859372;29;20663;-67
2023/09/28 01:40:42;;;;;;;4.85;3.85;;;16.90;99.90;;;;;;4868011;29;20262;-62
2023/09/28 01:43:10;;;;;;;4.28;3.70;;;16.90;99.90;;;;;;4859787;29;20699;-62
2023/09/28 01:45:37;;;;;;;4.30;3.85;;;16.90;99.90;;;;;;4858339;29;20200;-62
2023/09/28 01:48:04;;;;;;;5.72;3.70;;;16.80;99.90;;;;;;4859584;29;20217;-62
2023/09/28 01:50:32;;;;;;;4.72;4.05;;;16.90;99.90;;;;;;4863121;29;20598;-64
2023/09/28 01:53:00;;;;;;;3.97;3.50;;;16.80;99.90;;;;;;4877152;29;20190;-64
2023/09/28 01:55:27;;;;;;;4.82;4.22;;;16.80;99.90;;;;;;4877067;29;20229;-64
2023/09/28 01:57:54;;;;;;;6.32;3.97;;;16.90;99.90;;;;;;4856925;29;20251;-64
2023/09/28 02:04:21;;;;;;;6.55;3.80;;;17.00;99.90;;;;;;4873224;29;20181;-64
2023/09/28 02:06:48;;;;;;;6.55;4.43;;;17.00;99.90;;;;;;4856585;29;20289;-64
2023/09/28 02:09:17;;;;;;;5.32;3.90;;;17.00;99.90;;;;;;4854557;29;20691;-63
2023/09/28 02:11:45;;;;;;;4.47;3.95;;;17.10;99.90;;;;;;4881261;29;20647;-63
2023/09/28 02:14:12;;;;;;;7.78;5.72;;;17.10;99.90;;;;;;4838087;29;20249;-64
2023/09/28 02:16:40;;;;;;;7.82;4.40;;;17.10;99.90;;;;;;4869679;29;20207;-63
2023/09/28 02:19:10;;;;;;;9.65;5.95;;;17.10;99.90;;;;;;4874293;29;20244;-63
2023/09/28 02:21:38;;;;;;;14.05;9.23;;;17.10;99.90;;;;;;4864748;29;20229;-63
2023/09/28 02:24:07;;;;;;;12.23;7.53;;;17.10;99.90;;;;;;4870478;29;20682;-62
2023/09/28 02:26:34;;;;;;;8.02;4.63;;;17.10;99.90;;;;;;4869255;29;20261;-62
2023/09/28 02:29:02;;;;;;;8.05;4.07;;;17.10;99.90;;;;;;4873578;29;20209;-63
2023/09/28 02:31:29;;;;;;;14.27;9.05;;;17.10;99.90;;;;;;4881390;29;20199;-62
2023/09/28 02:33:57;;;;;;;6.13;4.50;;;17.10;99.90;;;;;;4875749;29;20222;-62
2023/09/28 02:36:30;;;;;;;6.72;4.78;;;17.10;99.90;;;;;;4889030;29;20227;-73
2023/09/28 02:38:57;;;;;;;4.93;3.83;;;17.00;99.90;;;;;;4873418;29;20297;-68
2023/09/28 02:41:24;;;;;;;5.47;3.65;;;17.00;99.90;;;;;;4876520;29;20515;-67
2023/09/28 02:43:51;;;;;;;10.10;5.53;;;17.00;99.90;;;;;;4890569;29;20294;-66
2023/09/28 02:46:19;;;;;;;10.77;4.60;;;17.00;99.90;;;;;;4874985;29;20293;-67
2023/09/28 02:48:46;;;;;;;4.30;3.38;;;16.90;99.90;;;;;;4876431;29;20331;-69
2023/09/28 02:51:13;;;;;;;4.53;3.70;;;16.70;99.90;;;;;;4891929;29;20202;-66
2023/09/28 02:53:40;;;;;;;6.45;4.80;;;16.60;99.90;;;;;;4886959;29;20667;-66
2023/09/28 02:56:07;;;;;;;4.88;3.85;;;16.60;99.90;;;;;;4879243;29;20275;-64
2023/09/28 02:58:35;;;;;;;4.50;4.00;;;16.70;99.90;;;;;;4878622;29;20193;-63
2023/09/28 03:01:03;;;;;;;5.75;4.00;;;16.70;99.90;;;;;;4875541;29;20288;-65
2023/09/28 03:03:30;;;;;;;5.45;3.85;;;16.70;99.90;;;;;;4891135;29;20625;-65
2023/09/28 03:05:58;;;;;;;4.00;3.60;;;16.70;99.90;;;;;;4875402;29;20217;-65
2023/09/28 03:08:25;;;;;;;4.50;3.75;;;16.80;99.90;;;;;;4867325;29;20205;-63
2023/09/28 03:10:52;;;;;;;5.60;3.63;;;16.80;99.90;;;;;;4879303;29;20205;-63
2023/09/28 03:13:19;;;;;;;4.55;3.55;;;16.70;99.90;;;;;;4876977;29;20212;-62
2023/09/28 03:15:46;;;;;;;5.18;3.53;;;16.70;99.90;;;;;;4887651;29;20714;-63
2023/09/28 03:18:14;;;;;;;4.38;3.53;;;16.60;99.90;;;;;;4874612;29;20197;-67
2023/09/28 03:20:44;;;;;;;7.68;3.72;;;16.60;99.90;;;;;;4867316;29;20671;-66
2023/09/28 03:23:12;;;;;;;6.70;3.83;;;16.50;99.90;;;;;;4867659;29;20210;-69
2023/09/28 03:25:39;;;;;;;7.18;3.85;;;16.50;99.90;;;;;;4874340;29;20322;-69
2023/09/28 03:28:06;;;;;;;7.28;4.15;;;16.50;99.90;;;;;;4875542;29;20202;-67
2023/09/28 03:30:33;;;;;;;3.85;3.45;;;16.50;99.90;;;;;;4874883;29;20205;-66
2023/09/28 03:33:00;;;;;;;4.82;3.90;;;16.40;99.90;;;;;;4871879;29;20301;-66
2023/09/28 03:35:27;;;;;;;4.18;3.38;;;16.40;99.90;;;;;;4873979;29;20225;-66
2023/09/28 03:37:56;;;;;;;5.43;3.65;;;16.40;99.90;;;;;;4881566;29;20580;-66
2023/09/28 03:40:24;;;;;;;6.72;3.55;;;16.40;99.90;;;;;;4876134;29;20305;-66
2023/09/28 03:42:51;;;;;;;10.48;3.95;;;16.30;99.90;;;;;;4888865;29;20643;-66
2023/09/28 03:45:21;;;;;;;9.43;4.60;;;16.30;99.90;;;;;;4860745;29;20665;-64
2023/09/28 03:47:52;;;;;;;7.53;4.28;;;16.30;99.90;;;;;;4876263;29;20206;-64
2023/09/28 03:50:21;;;;;;;6.60;4.20;;;16.20;99.90;;;;;;4872647;29;20238;-65
2023/09/28 03:52:51;;;;;;;6.07;4.18;;;16.20;99.90;;;;;;4878592;29;20323;-72
2023/09/28 03:55:21;;;;;;;5.38;4.30;;;16.10;99.90;;;;;;4887944;29;20753;-68
2023/09/28 03:57:50;;;;;;;5.43;3.92;;;16.10;99.90;;;;;;4866667;29;20285;-66
2023/09/28 04:00:19;;;;;;;4.63;4.10;;;16.00;99.90;;;;;;4873761;29;20197;-65
2023/09/28 04:02:49;;;;;;;11.50;4.25;;;16.00;99.90;;;;;;4880529;29;20202;-68
2023/09/28 04:05:23;;;;;;;5.30;4.18;;;16.00;99.90;;;;;;4873855;29;20223;-68
2023/09/28 04:07:51;;;;;;;6.63;4.50;;;15.90;99.90;;;;;;4889196;29;20682;-65
2023/09/28 04:10:20;;;;;;;5.88;4.13;;;15.90;99.90;;;;;;4887693;29;20193;-63
2023/09/28 04:12:52;;;;;;;4.47;4.00;;;15.90;99.90;;;;;;4875627;29;20217;-63
2023/09/28 04:15:19;;;;;;;6.10;4.65;;;15.80;99.90;;;;;;4875654;29;20233;-63
2023/09/28 04:17:46;;;;;;;5.78;4.75;;;15.70;99.90;;;;;;4875523;29;20186;-66
2023/09/28 04:20:13;;;;;;;6.18;4.30;;;15.70;99.90;;;;;;4890114;29;20265;-68
2023/09/28 04:22:40;;;;;;;7.97;4.75;;;15.70;99.90;;;;;;4872124;29;20254;-67
2023/09/28 04:25:08;;;;;;;5.97;4.30;;;15.70;99.90;;;;;;4874767;29;20202;-67
2023/09/28 04:27:35;;;;;;;4.40;3.58;;;15.60;99.90;;;;;;4872517;29;20721;-74
2023/09/28 04:30:03;;;;;;;5.53;4.15;;;15.70;99.90;;;;;;4866922;29;20193;-69
2023/09/28 04:32:31;;;;;;;5.78;3.40;;;15.80;99.90;;;;;;4875966;29;20332;-67
2023/09/28 04:34:58;;;;;;;6.10;4.38;;;15.90;99.90;;;;;;4871552;29;20587;-69
2023/09/28 04:37:26;;;;;;;5.03;4.15;;;16.00;99.90;;;;;;4869676;29;20273;-64
2023/09/28 04:39:53;;;;;;;6.57;4.60;;;15.90;99.90;;;;;;4875384;29;20201;-63
2023/09/28 04:42:20;;;;;;;4.65;3.47;;;15.90;99.90;;;;;;4882232;29;20591;-64
2023/09/28 04:44:49;;;;;;;5.97;3.92;;;15.90;99.90;;;;;;4866740;29;20209;-63
2023/09/28 04:47:16;;;;;;;4.93;3.58;;;16.00;99.90;;;;;;4875018;29;20209;-64
2023/09/28 04:49:44;;;;;;;6.30;3.72;;;15.90;99.90;;;;;;4859350;29;20214;-63
2023/09/28 04:52:12;;;;;;;5.50;4.28;;;15.90;99.90;;;;;;4885918;29;20198;-63
2023/09/28 04:54:39;;;;;;;8.55;5.18;;;15.80;99.90;;;;;;4875438;29;20214;-64
2023/09/28 04:57:06;;;;;;;11.23;4.35;;;15.70;99.90;;;;;;4878218;29;20217;-63
2023/09/28 04:59:40;;;;;;;6.75;4.00;;;15.70;99.90;;;;;;4875413;29;20193;-63
2023/09/28 05:02:08;;;;;;;6.38;4.05;;;15.70;99.90;;;;;;4884189;29;20190;-63
2023/09/28 05:04:35;;;;;;;4.22;3.70;;;15.70;99.90;;;;;;4875005;29;20207;-63
2023/09/28 05:07:04;;;;;;;5.22;4.30;;;15.70;99.90;;;;;;4874385;29;20297;-64
2023/09/28 05:09:31;;;;;;;4.82;3.80;;;15.70;99.90;;;;;;4874074;29;20212;-64
2023/09/28 05:12:01;;;;;;;4.80;3.88;;;15.70;99.90;;;;;;4872534;29;20261;-65
2023/09/28 05:14:31;;;;;;;6.22;3.92;;;15.70;99.90;;;;;;4876315;29;20293;-63
2023/09/28 05:16:58;;;;;;;6.20;4.18;;;15.70;99.90;;;;;;4837173;29;20215;-67
2023/09/28 05:19:25;;;;;;;6.65;4.78;;;15.70;99.90;;;;;;4852771;29;20212;-67
2023/09/28 05:21:53;;;;;;;5.10;3.72;;;15.70;99.90;;;;;;4838322;29;20210;-67
2023/09/28 05:24:20;;;;;;;5.63;4.30;;;15.70;99.90;;;;;;4839016;29;20202;-66
2023/09/28 05:26:48;;;;;;;5.82;4.03;;;15.70;99.90;;;;;;4837142;29;20199;-66
2023/09/28 05:29:16;;;;;;;5.43;3.70;;;15.70;99.90;;;;;;4852552;29;20207;-67
2023/09/28 05:31:44;;;;;;;7.28;4.22;;;15.70;99.90;;;;;;4856966;29;20230;-66
2023/09/28 05:34:11;;;;;;;9.43;5.13;;;15.60;99.90;;;;;;4831565;29;20198;-66
2023/09/28 05:36:38;;;;;;;11.30;4.90;;;15.60;99.90;;;;;;4846468;29;20902;-65
2023/09/28 05:39:08;;;;;;;8.53;4.83;;;15.60;99.90;;;;;;4861111;29;20251;-62
2023/09/28 05:41:35;;;;;;;9.17;5.40;;;15.60;99.90;;;;;;4857314;29;20199;-62
2023/09/28 05:44:02;;;;;;;6.70;4.50;;;15.60;99.90;;;;;;4849799;29;20555;-61
2023/09/28 05:46:30;;;;;;;7.07;4.65;;;15.60;99.90;;;;;;4853492;29;20199;-62
2023/09/28 05:48:57;;;;;;;5.25;3.95;;;15.60;99.90;;;;;;4847299;29;20262;-66
2023/09/28 05:51:24;;;;;;;6.63;4.32;;;15.70;99.90;;;;;;4834793;29;20235;-61
2023/09/28 05:53:52;;;;;;;6.65;4.68;;;15.70;99.90;;;;;;4853118;29;20305;-64
2023/09/28 05:56:21;;;;;;;8.45;4.10;;;15.70;99.90;;;;;;4851521;29;20611;-63
2023/09/28 05:58:48;;;;;;;6.32;3.83;;;15.70;99.90;;;;;;4856714;29;20226;-63
2023/09/28 06:01:17;;;;;;;4.93;3.92;;;15.90;99.90;;;;;;4859773;29;20217;-62
2023/09/28 06:03:44;;;;;;;8.00;4.57;;;16.60;99.90;;;;;;4848928;29;20285;-62
2023/09/28 06:06:19;;;;;;;5.18;4.10;;;17.30;99.90;;;;;;4843571;29;20239;-66
2023/09/28 06:08:46;;;;;;;5.40;3.70;;;17.90;99.90;;;;;;4857195;29;20296;-66
2023/09/28 06:11:15;;;;;;;6.55;4.00;;;18.70;99.90;;;;;;4863533;29;20229;-66
2023/09/28 06:13:44;;;;;;;8.20;3.33;;;19.60;99.90;;;;;;4860740;29;20267;-65
2023/09/28 06:16:31;;;;;;;5.35;3.05;;;20.60;99.90;;;;;;4872513;29;20222;-64
2023/09/28 06:18:58;;;;;;;9.40;3.53;;;21.60;99.90;;;;;;4852644;29;21212;-63
2023/09/28 06:21:25;;;;;;;6.18;3.33;;;21.60;99.90;;;;;;4859670;29;20206;-64
2023/09/28 06:23:53;;;;;;;7.18;3.15;;;21.70;99.90;;;;;;4874709;29;20205;-67
2023/09/28 06:26:20;;;;;;;6.32;2.97;;;22.40;99.90;;;;;;4855974;29;20256;-68
2023/09/28 06:29:07;;;;;;;6.07;3.13;;;23.40;99.90;;;;;;4851663;29;20675;-67
2023/09/28 06:31:35;;;;;;;3.65;2.78;;;24.30;99.90;;;;;;4854836;29;20199;-67
2023/09/28 06:34:06;;;;;;;3.28;2.78;;;24.90;99.90;;;;;;4861382;29;20526;-66
2023/09/28 06:36:33;;;;;;;5.35;2.88;;;25.00;99.90;;;;;;4869047;29;20215;-67
2023/09/28 06:39:04;;;;;;;12.13;3.65;;;25.80;99.90;;;;;;4852451;29;20656;-67
2023/09/28 06:41:31;;;;;;;8.48;4.25;;;26.60;99.90;;;;;;4855930;29;20198;-66
2023/09/28 06:43:58;;;;;;;7.40;4.00;;;27.00;99.90;;;;;;4849582;29;20198;-66
2023/09/28 06:46:26;;;;;;;9.38;3.97;;;27.00;99.90;;;;;;4851096;29;20707;-67
2023/09/28 06:48:53;;;;;;;10.73;4.50;;;27.90;99.90;;;;;;4852946;29;20234;-67
2023/09/28 06:51:21;;;;;;;10.57;3.97;;;28.00;99.90;;;;;;4850259;29;20209;-68
2023/09/28 06:53:49;;;;;;;4.03;3.42;;;28.40;99.90;;;;;;4852148;29;20277;-67
2023/09/28 06:56:16;;;;;;;8.68;4.68;;;28.60;99.90;;;;;;4872030;29;21019;-67
2023/09/28 06:58:43;;;;;;;6.75;4.10;;;29.40;99.90;;;;;;4871973;29;20218;-67
2023/09/28 07:01:10;;;;;;;6.43;4.15;;;29.80;99.90;;;;;;4854365;29;20193;-67
2023/09/28 07:03:37;;;;;;;7.00;4.03;;;29.90;99.90;;;;;;4856738;29;20198;-67
2023/09/28 07:06:05;;;;;;;4.68;3.58;;;30.90;99.90;;;;;;4857145;29;20675;-67
2023/09/28 07:08:32;;;;;;;4.43;3.80;;;30.90;99.90;;;;;;4854455;29;20554;-67
2023/09/28 07:10:59;;;;;;;4.47;3.78;;;30.70;99.90;;;;;;4854595;29;20195;-68
2023/09/28 07:13:27;;;;;;;3.55;3.22;;;29.40;99.90;;;;;;4850650;29;20736;-67
2023/09/28 07:15:56;;;;;;;4.45;3.30;;;27.90;99.90;;;;;;4881874;29;20246;-67
2023/09/28 07:18:25;;;;;;;6.47;3.42;;;28.10;99.90;;;;;;4867919;29;20205;-68
2023/09/28 07:20:53;;;;;;;4.30;3.28;;;27.80;99.90;;;;;;4883855;29;20652;-67
2023/09/28 07:23:20;;;;;;;6.78;3.58;;;27.60;99.90;;;;;;4886711;29;20194;-67
2023/09/28 07:25:50;;;;;;;4.65;3.53;;;28.60;99.90;;;;;;4867276;29;20261;-67
2023/09/28 07:28:18;;;;;;;4.95;3.30;;;28.90;99.90;;;;;;4871141;29;20202;-67
2023/09/28 07:30:45;;;;;;;4.57;3.42;;;28.90;99.90;;;;;;4889877;29;20229;-67
2023/09/28 07:33:15;;;;;;;5.60;3.40;;;28.60;99.90;;;;;;4876043;29;20245;-67
2023/09/28 07:35:43;;;;;;;3.40;2.90;;;30.70;99.90;;;;;;4867899;29;20687;-64
2023/09/28 07:38:11;;;;;;;3.65;3.05;;;31.80;99.90;;;;;;4856570;29;20286;-65
2023/09/28 07:40:38;;;;;;;4.60;3.25;;;33.10;99.90;;;;;;4864209;29;20664;-64
2023/09/28 07:43:14;;;;;;;4.88;3.17;;;31.50;99.90;;;;;;4878344;29;20208;-66
2023/09/28 07:45:42;;;;;;;3.33;2.97;;;32.80;99.90;;;;;;4866527;29;20253;-63
2023/09/28 07:48:09;;;;;;;3.58;3.28;;;34.30;99.90;;;;;;4871812;29;20560;-63
2023/09/28 07:50:36;;;;;;;3.50;3.10;;;33.50;99.90;;;;;;4874087;29;20197;-63
2023/09/28 07:53:03;;;;;;;4.90;3.58;;;33.90;99.90;;;;;;4872279;29;20216;-64
2023/09/28 07:55:31;;;;;;;4.13;3.72;;;34.20;99.90;;;;;;4884877;29;20218;-64
2023/09/28 07:57:58;;;;;;;4.07;3.60;;;34.00;99.90;;;;;;4866941;29;20205;-64
2023/09/28 08:00:45;;;;;;;4.38;3.38;;;34.30;99.90;;;;;;4864348;29;20542;-63
2023/09/28 08:03:12;;;;;;;3.95;3.17;;;33.80;99.90;;;;;;4881412;29;20655;-63
2023/09/28 08:05:40;;;;;;;3.58;3.10;;;33.70;99.90;;;;;;4871361;29;20293;-64
2023/09/28 08:08:07;;;;;;;5.65;3.60;;;34.80;99.90;;;;;;4865870;29;20198;-63
2023/09/28 08:10:44;;;;;;;4.68;3.63;;;34.60;99.90;;;;;;4869283;29;20225;-63
2023/09/28 08:13:11;;;;;;;3.50;3.20;;;33.80;99.90;;;;;;4877153;29;20205;-64
2023/09/28 08:15:41;;;;;;;7.63;3.60;;;31.90;99.90;;;;;;4872697;29;20698;-67
2023/09/28 08:18:09;;;;;;;3.53;3.22;;;29.20;99.90;;;;;;4869844;29;20195;-64
2023/09/28 08:20:37;;;;;;;3.58;3.28;;;27.30;99.90;;;;;;4869821;29;20205;-66
2023/09/28 08:23:09;;;;;;;4.13;3.50;;;27.00;99.90;;;;;;4872497;29;20601;-65
2023/09/28 08:25:37;;;;;;;6.07;3.80;;;27.20;99.90;;;;;;4870398;29;20202;-66
2023/09/28 08:28:04;;;;;;;5.07;3.55;;;26.20;99.90;;;;;;4880072;29;20202;-67
2023/09/28 08:30:31;;;;;;;6.13;3.45;;;25.20;99.90;;;;;;4872768;29;20216;-66
2023/09/28 08:32:58;;;;;;;6.00;3.67;;;25.80;99.90;;;;;;4874169;29;20226;-66
2023/09/28 08:35:29;;;;;;;4.20;3.58;;;26.00;99.90;;;;;;4871496;29;20213;-67
2023/09/28 08:37:56;;;;;;;4.32;3.92;;;25.80;99.90;;;;;;4890234;29;20272;-66
2023/09/28 08:40:24;;;;;;;6.13;3.70;;;26.30;99.90;;;;;;4869000;29;20205;-67
2023/09/28 08:42:54;;;;;;;3.75;3.15;;;26.20;99.90;;;;;;4873892;29;20229;-66
2023/09/28 08:45:23;;;;;;;4.82;3.20;;;27.60;99.90;;;;;;4867904;29;20640;-63
2023/09/28 08:47:51;;;;;;;3.72;3.10;;;29.30;99.90;;;;;;4868228;29;20967;-64
2023/09/28 08:50:27;;;;;;;6.18;3.83;;;33.20;99.90;;;;;;4886473;29;20206;-64
2023/09/28 08:52:56;;;;;;;5.13;3.63;;;34.20;99.90;;;;;;4864704;29;20674;-64
2023/09/28 08:55:24;;;;;;;7.07;3.70;;;36.40;99.90;;;;;;4874227;29;20317;-64
2023/09/28 08:57:53;;;;;;;3.88;3.50;;;37.30;99.90;;;;;;4868962;29;20665;-64
2023/09/28 09:00:23;;;;;;;7.28;3.85;;;35.20;99.90;;;;;;4870168;29;20198;-67
2023/09/28 09:02:58;;;;;;;6.47;3.92;;;34.00;99.90;;;;;;4882434;29;20199;-66
2023/09/28 09:05:29;;;;;;;5.70;3.92;;;35.80;99.90;;;;;;4868478;29;20204;-65
2023/09/28 09:07:59;;;;;;;4.03;2.83;;;35.40;99.90;;;;;;4863222;29;20193;-63
2023/09/28 09:10:28;;;;;;;4.40;3.40;;;37.40;99.90;;;;;;4880606;29;20216;-64
2023/09/28 09:12:55;;;;;;;3.97;3.20;;;38.10;99.90;;;;;;4871405;29;20194;-64
2023/09/28 09:15:24;;;;;;;6.20;3.17;;;39.10;99.90;;;;;;4876910;29;20225;-64
2023/09/28 09:18:03;;;;;;;5.60;3.70;;;40.30;99.90;;;;;;4869082;29;20695;-65
2023/09/28 09:20:30;;;;;;;6.80;3.58;;;40.50;99.90;;;;;;4865966;29;20293;-65
2023/09/28 09:23:13;;;;;;;4.03;3.03;;;39.90;99.90;;;;;;4869418;29;20205;-64
2023/09/28 09:25:47;;;;;;;3.95;3.13;;;38.30;99.90;;;;;;4880915;29;20204;-64
2023/09/28 09:28:34;;;;;;;3.72;3.00;;;39.40;99.90;;;;;;4884654;29;20213;-64
2023/09/28 09:31:01;;;;;;;4.35;3.40;;;40.50;99.90;;;;;;4870671;29;20236;-64
2023/09/28 09:33:29;;;;;;;6.53;3.47;;;40.50;99.90;;;;;;4870698;29;20316;-65
2023/09/28 09:35:56;;;;;;;4.75;3.10;;;39.00;99.90;;;;;;4866819;29;20214;-64
2023/09/28 09:38:27;;;;;;;4.80;3.63;;;38.90;99.90;;;;;;4870142;29;20551;-66
2023/09/28 09:40:59;;;;;;;9.02;3.47;;;36.80;99.90;;;;;;4871871;29;20504;-64
2023/09/28 09:43:36;;;;;;;8.45;4.03;;;37.70;99.90;;;;;;4881851;29;20205;-64
2023/09/28 09:46:07;;;;;;;8.10;3.28;;;38.90;99.90;;;;;;4877889;29;20201;-64
2023/09/28 09:48:40;;;;;;;6.60;3.78;;;37.80;99.90;;;;;;4857326;29;20413;-63
2023/09/28 09:51:12;;;;;;;4.78;3.55;;;39.10;99.90;;;;;;4874073;29;20309;-63
2023/09/28 09:53:40;;;;;;;5.25;3.40;;;39.20;99.90;;;;;;4878145;29;20214;-63
2023/09/28 09:56:09;;;;;;;4.15;3.10;;;37.70;99.90;;;;;;4865861;29;20281;-63
2023/09/28 09:58:40;;;;;;;3.97;3.15;;;38.30;99.90;;;;;;4869320;29;20699;-66
2023/09/28 10:01:12;;;;;;;5.85;3.00;;;34.60;99.90;;;;;;4864581;29;20274;-64
2023/09/28 10:03:50;;;;;;;4.85;3.22;;;31.40;99.90;;;;;;4880074;29;20670;-63
2023/09/28 10:06:22;;;;;;;6.07;4.30;;;29.50;99.90;;;;;;4877501;29;20284;-63
2023/09/28 10:08:50;;;;;;;6.95;3.25;;;27.90;99.90;;;;;;4865298;29;20251;-63
2023/09/28 10:11:18;;;;;;;5.15;3.50;;;26.90;99.90;;;;;;4865796;29;20218;-65
2023/09/28 10:13:48;;;;;;;5.18;3.05;;;26.60;99.90;;;;;;4873488;29;20742;-63
2023/09/28 10:16:17;;;;;;;4.55;3.30;;;26.70;99.90;;;;;;4878945;29;20300;-64
2023/09/28 10:18:47;;;;;;;7.25;3.50;;;26.50;99.90;;;;;;4875497;29;20202;-64
2023/09/28 10:21:15;;;;;;;4.07;3.05;;;26.00;99.90;;;;;;4870130;29;20282;-63
2023/09/28 10:23:42;;;;;;;4.45;3.08;;;25.40;99.90;;;;;;4872969;29;20618;-63
2023/09/28 10:26:17;;;;;;;6.35;3.25;;;25.70;99.90;;;;;;4862095;29;20198;-63
2023/09/28 10:29:07;;;;;;;4.95;2.88;;;25.60;99.90;;;;;;4867785;29;20201;-67
2023/09/28 10:31:39;;;;;;;6.15;3.60;;;25.90;99.90;;;;;;4875480;29;20285;-64
2023/09/28 10:34:25;;;;;;;5.68;3.28;;;26.10;99.90;;;;;;4893873;29;20227;-63
2023/09/28 10:37:18;;;;;;;7.88;3.42;;;25.80;99.90;;;;;;4876148;29;20210;-63
2023/09/28 10:39:51;;;;;;;4.57;3.30;;;26.30;99.90;;;;;;4889911;29;20678;-63
2023/09/28 10:42:19;;;;;;;5.25;3.58;;;26.40;99.90;;;;;;4875125;29;20190;-63
2023/09/28 10:44:55;;;;;;;6.75;3.53;;;27.50;99.90;;;;;;4874527;29;20203;-63
2023/09/28 10:47:23;;;;;;;5.47;3.55;;;28.10;99.90;;;;;;4881400;29;20572;-67
2023/09/28 10:50:04;;;;;;;4.38;3.30;;;27.50;99.90;;;;;;4875300;29;20324;-67
2023/09/28 10:52:31;;;;;;;4.35;3.55;;;27.40;99.90;;;;;;4893359;29;20277;-67
2023/09/28 10:54:59;;;;;;;5.97;3.45;;;27.80;99.90;;;;;;4873584;29;20225;-67
2023/09/28 10:57:31;;;;;;;5.63;3.65;;;27.80;99.90;;;;;;4860700;29;20716;-68
2023/09/28 11:00:04;;;;;;;4.47;3.22;;;28.80;99.90;;;;;;4870256;29;20202;-68
2023/09/28 11:02:37;;;;;;;4.18;3.10;;;29.50;99.90;;;;;;4875461;29;20629;-68
2023/09/28 11:05:08;;;;;;;4.15;3.13;;;30.30;99.90;;;;;;4868197;29;20288;-68
2023/09/28 11:07:36;;;;;;;5.68;3.03;;;31.60;99.90;;;;;;4865588;29;20221;-64
2023/09/28 11:10:04;;;;;;;4.47;3.17;;;31.70;99.90;;;;;;4885411;29;20289;-64
2023/09/28 11:12:31;;;;;;;4.53;2.95;;;32.90;99.90;;;;;;4863732;29;20691;-64
2023/09/28 11:14:58;;;;;;;5.13;3.70;;;33.40;99.90;;;;;;4859072;29;20655;-64
2023/09/28 11:17:26;;;;;;;5.47;3.13;;;31.70;99.90;;;;;;4870657;29;20211;-63
2023/09/28 11:19:56;;;;;;;3.70;3.20;;;30.90;99.90;;;;;;4869765;29;20193;-63
2023/09/28 11:22:23;;;;;;;5.55;3.50;;;31.50;99.90;;;;;;4878227;29;20211;-64
2023/09/28 11:24:50;;;;;;;5.88;2.80;;;31.60;99.90;;;;;;4855994;29;20316;-66
2023/09/28 11:27:18;;;;;;;4.20;3.60;;;31.10;99.90;;;;;;4865490;29;20201;-64
2023/09/28 11:29:45;;;;;;;4.10;3.70;;;32.40;99.90;;;;;;4870876;29;20781;-64
2023/09/28 11:32:12;;;;;;;4.13;3.70;;;32.50;99.90;;;;;;4873377;29;20305;-64
2023/09/28 11:34:39;;;;;;;5.38;3.67;;;32.00;99.90;;;;;;4865959;29;20493;-64
2023/09/28 11:37:09;;;;;;;5.40;3.67;;;31.10;99.90;;;;;;4882128;29;20687;-63
2023/09/28 11:39:38;;;;;;;3.95;3.20;;;30.40;99.90;;;;;;4869307;29;20644;-63
2023/09/28 11:42:07;;;;;;;4.03;3.25;;;30.80;99.90;;;;;;4873489;29;20202;-64
2023/09/28 11:44:34;;;;;;;5.35;3.47;;;30.10;99.90;;;;;;4869926;29;20540;-64
2023/09/28 11:47:05;;;;;;;5.05;3.90;;;29.60;99.90;;;;;;4873753;29;20208;-65
2023/09/28 11:49:36;;;;;;;7.03;4.00;;;29.60;99.90;;;;;;4871614;29;20612;-64
2023/09/28 11:52:04;;;;;;;7.55;3.67;;;30.70;99.90;;;;;;4868080;29;20206;-64
2023/09/28 11:54:32;;;;;;;4.78;4.15;;;31.10;99.90;;;;;;4863486;29;20615;-64
2023/09/28 11:56:59;;;;;;;5.72;3.63;;;30.40;99.90;;;;;;4865921;29;20365;-69
2023/09/28 11:59:26;;;;;;;4.53;4.00;;;29.80;99.90;;;;;;4867300;29;20197;-67
2023/09/28 12:01:55;;;;;;;8.35;4.15;;;29.00;99.90;;;;;;4870903;29;20194;-67
2023/09/28 12:04:22;;;;;;;6.93;4.20;;;28.60;99.90;;;;;;4869109;29;20789;-69
2023/09/28 12:06:49;;;;;;;5.93;4.15;;;28.80;99.90;;;;;;4870118;29;20301;-68
2023/09/28 12:09:17;;;;;;;6.20;3.53;;;28.90;99.90;;;;;;4866943;29;20193;-67
2023/09/28 12:11:45;;;;;;;8.50;4.22;;;29.80;99.90;;;;;;4870483;29;20203;-67
2023/09/28 12:14:13;;;;;;;5.45;4.40;;;28.60;99.90;;;;;;4876802;29;20245;-67
2023/09/28 12:16:42;;;;;;;5.78;4.38;;;28.20;99.90;;;;;;4847188;29;20309;-64
2023/09/28 12:19:13;;;;;;;5.22;4.53;;;28.10;99.90;;;;;;4860309;29;20237;-63
2023/09/28 12:21:41;;;;;;;5.78;4.45;;;27.20;99.90;;;;;;4853088;29;20297;-65
2023/09/28 12:24:08;;;;;;;9.70;4.30;;;27.00;99.90;;;;;;4866058;29;20595;-67
2023/09/28 12:26:36;;;;;;;4.47;4.07;;;26.90;99.90;;;;;;4864810;29;20277;-64
2023/09/28 12:29:03;;;;;;;7.20;4.57;;;27.70;99.90;;;;;;4871443;29;20224;-63
2023/09/28 12:31:30;;;;;;;8.30;5.07;;;28.40;99.90;;;;;;4887734;29;20201;-63
2023/09/28 12:33:57;;;;;;;5.60;4.55;;;28.60;99.90;;;;;;4870912;29;20296;-63
2023/09/28 12:36:24;;;;;;;6.40;4.53;;;28.50;99.90;;;;;;4873442;29;20322;-66
2023/09/28 12:38:52;;;;;;;6.15;4.53;;;28.20;99.90;;;;;;4870634;29;20246;-66
2023/09/28 12:41:19;;;;;;;8.55;5.90;;;27.00;99.90;;;;;;4880143;29;20191;-68
2023/09/28 12:43:46;;;;;;;8.15;5.25;;;27.20;99.90;;;;;;4873385;29;20198;-68
2023/09/28 12:46:14;;;;;;;6.45;5.03;;;26.90;99.90;;;;;;4848885;29;20206;-68
2023/09/28 12:48:42;;;;;;;7.57;5.40;;;26.50;99.90;;;;;;4872543;29;20213;-69
2023/09/28 12:51:09;;;;;;;7.95;5.00;;;26.50;99.90;;;;;;4864708;29;20199;-70
2023/09/28 12:53:38;;;;;;;5.28;4.78;;;27.00;99.90;;;;;;4889459;29;20568;-68
2023/09/28 12:56:06;;;;;;;6.97;5.28;;;27.40;99.90;;;;;;4863951;29;20197;-68
2023/09/28 12:58:34;;;;;;;6.28;5.20;;;27.20;99.90;;;;;;4865395;29;20247;-69